createdAt,value
2023-03-05T00:02:07.419Z,24.48
2023-03-05T00:04:33.852Z,23.84
2023-03-05T00:07:00.223Z,24.96
2023-03-05T00:09:26.604Z,23.60
2023-03-05T00:11:52.989Z,24.82
2023-03-05T00:14:19.370Z,23.79
2023-03-05T00:16:45.734Z,23.38
2023-03-05T00:19:12.163Z,23.79
2023-03-05T00:21:38.550Z,23.42
2023-03-05T00:24:04.991Z,23.54
2023-03-05T00:26:31.414Z,23.55
2023-03-05T00:28:57.807Z,23.90
2023-03-05T00:31:24.236Z,23.56
2023-03-05T00:33:50.666Z,23.58
2023-03-05T00:36:17.043Z,23.47
2023-03-05T00:38:43.436Z,24.08
2023-03-05T00:41:09.808Z,23.10
2023-03-05T00:43:36.338Z,23.98
2023-03-05T00:46:02.772Z,23.57
2023-03-05T00:48:29.166Z,23.50
2023-03-05T00:50:55.541Z,23.70
2023-03-05T00:53:21.957Z,24.29
2023-03-05T00:55:48.345Z,23.36
2023-03-05T00:58:14.792Z,23.48
2023-03-05T01:00:41.253Z,24.44
2023-03-05T01:03:07.712Z,25.40
2023-03-05T01:05:34.167Z,25.38
2023-03-05T01:08:00.602Z,24.98
2023-03-05T01:10:27.000Z,24.82
2023-03-05T01:12:53.385Z,25.35
2023-03-05T01:15:19.826Z,26.33
2023-03-05T01:17:46.244Z,26.22
2023-03-05T01:20:12.613Z,24.88
2023-03-05T01:22:38.991Z,26.04
2023-03-05T01:25:05.360Z,26.59
2023-03-05T01:27:31.764Z,26.88
2023-03-05T01:29:58.166Z,25.90
2023-03-05T01:32:24.607Z,26.68
2023-03-05T01:34:50.981Z,26.47
2023-03-05T01:37:17.333Z,26.59
2023-03-05T01:39:43.732Z,27.29
2023-03-05T01:42:10.227Z,27.00
2023-03-05T01:44:36.607Z,26.62
2023-03-05T01:47:02.958Z,26.94
2023-03-05T01:49:29.431Z,27.88
2023-03-05T01:51:55.823Z,27.47
2023-03-05T01:54:22.176Z,27.24
2023-03-05T01:56:48.570Z,27.54
2023-03-05T01:59:14.954Z,27.09
2023-03-05T02:01:41.360Z,26.76
2023-03-05T02:04:07.823Z,27.82
2023-03-05T02:06:34.238Z,27.29
2023-03-05T02:09:00.625Z,27.87
2023-03-05T02:11:27.025Z,27.29
2023-03-05T02:13:53.409Z,26.63
2023-03-05T02:16:19.836Z,27.85
2023-03-05T02:18:46.222Z,28.34
2023-03-05T02:21:12.597Z,28.27
2023-03-05T02:23:38.991Z,26.86
2023-03-05T02:26:05.361Z,27.42
2023-03-05T02:28:31.723Z,28.14
2023-03-05T02:30:58.193Z,27.85
2023-03-05T02:33:24.659Z,27.44
2023-03-05T02:35:51.073Z,27.91
2023-03-05T02:38:17.484Z,27.81
2023-03-05T02:40:43.867Z,28.05
2023-03-05T02:43:10.304Z,27.71
2023-03-05T02:45:36.721Z,28.45
2023-03-05T02:48:03.121Z,28.01
2023-03-05T02:50:29.509Z,27.97
2023-03-05T02:52:55.891Z,29.20
2023-03-05T02:55:22.317Z,29.85
2023-03-05T02:57:48.721Z,29.84
2023-03-05T03:00:15.145Z,29.53
2023-03-05T03:02:41.537Z,30.22
2023-03-05T03:05:07.946Z,29.75
2023-03-05T03:07:34.358Z,30.99
2023-03-05T03:10:00.765Z,31.51
2023-03-05T03:12:27.148Z,31.93
2023-03-05T03:14:53.516Z,31.82
2023-03-05T03:17:19.936Z,32.95
2023-03-05T03:19:46.313Z,33.40
2023-03-05T03:22:12.699Z,32.78
2023-03-05T03:24:39.104Z,33.94
2023-03-05T03:27:05.463Z,33.79
2023-03-05T03:29:31.857Z,34.11
2023-03-05T03:31:58.280Z,35.12
2023-03-05T03:34:24.703Z,35.92
2023-03-05T03:36:51.104Z,35.49
2023-03-05T03:39:17.504Z,35.09
2023-03-05T03:41:43.879Z,35.22
2023-03-05T03:44:10.307Z,36.13
2023-03-05T03:46:36.708Z,36.63
2023-03-05T03:49:03.117Z,36.16
2023-03-05T03:51:29.520Z,36.13
2023-03-05T03:53:55.912Z,37.88
2023-03-05T03:56:22.271Z,36.97
2023-03-05T03:58:48.689Z,37.40
2023-03-05T04:01:15.072Z,37.59
2023-03-05T04:03:41.479Z,37.79
2023-03-05T04:06:07.841Z,37.46
2023-03-05T04:08:34.243Z,37.68
2023-03-05T04:11:00.600Z,37.75
2023-03-05T04:13:26.959Z,37.60
2023-03-05T04:15:53.373Z,37.50
2023-03-05T04:18:19.765Z,39.24
2023-03-05T04:20:46.221Z,37.90
2023-03-05T04:23:12.588Z,39.93
2023-03-05T04:25:39.025Z,39.03
2023-03-05T04:28:05.381Z,39.64
2023-03-05T04:30:31.798Z,40.73
2023-03-05T04:32:58.193Z,40.51
2023-03-05T04:35:24.585Z,40.98
2023-03-05T04:37:51.000Z,42.63
2023-03-05T04:40:17.369Z,42.15
2023-03-05T04:42:43.751Z,42.57
2023-03-05T04:45:10.135Z,43.69
2023-03-05T04:47:36.502Z,44.50
2023-03-05T04:50:02.897Z,42.58
2023-03-05T04:52:29.279Z,42.34
2023-03-05T04:54:55.669Z,42.46
2023-03-05T04:57:23.190Z,43.09
2023-03-05T04:59:50.472Z,43.78
2023-03-05T05:02:16.844Z,42.92
2023-03-05T05:04:43.254Z,43.32
2023-03-05T05:07:09.633Z,43.70
2023-03-05T05:09:36.030Z,44.23
2023-03-05T05:12:02.446Z,44.45
2023-03-05T05:14:28.883Z,44.94
2023-03-05T05:16:55.274Z,45.82
2023-03-05T05:19:21.736Z,45.18
2023-03-05T05:21:48.143Z,43.69
2023-03-05T05:24:14.530Z,44.90
2023-03-05T05:26:40.903Z,44.26
2023-03-05T05:29:07.334Z,43.71
2023-03-05T05:31:33.719Z,43.49
2023-03-05T05:34:00.222Z,42.66
2023-03-05T05:36:26.590Z,44.37
2023-03-05T05:38:52.956Z,44.04
2023-03-05T05:41:19.340Z,44.27
2023-03-05T05:43:45.786Z,44.61
2023-03-05T05:46:12.273Z,45.38
2023-03-05T05:48:38.762Z,44.87
2023-03-05T05:51:05.201Z,45.22
2023-03-05T05:53:31.583Z,44.67
2023-03-05T05:55:57.960Z,47.08
2023-03-05T05:58:24.405Z,47.25
2023-03-05T06:00:50.811Z,47.25
2023-03-05T06:03:17.314Z,47.42
2023-03-05T06:05:43.894Z,48.86
2023-03-05T06:08:10.297Z,47.08
2023-03-05T06:10:36.675Z,48.24
2023-03-05T06:13:03.084Z,47.76
2023-03-05T06:15:29.482Z,48.15
2023-03-05T06:17:55.863Z,47.36
2023-03-05T06:20:22.318Z,47.02
2023-03-05T06:22:48.732Z,48.09
2023-03-05T06:25:15.221Z,47.61
2023-03-05T06:27:41.597Z,46.87
2023-03-05T06:30:08.007Z,47.55
2023-03-05T06:32:34.460Z,48.00
2023-03-05T06:35:00.922Z,47.39
2023-03-05T06:37:27.284Z,48.64
2023-03-05T06:39:53.668Z,48.70
2023-03-05T06:42:20.033Z,47.66
2023-03-05T06:44:48.197Z,47.98
2023-03-05T06:47:14.687Z,49.34
2023-03-05T06:49:41.092Z,48.70
2023-03-05T06:52:07.475Z,48.41
2023-03-05T06:54:33.830Z,48.60
2023-03-05T06:57:00.213Z,49.19
2023-03-05T06:59:26.568Z,50.36
2023-03-05T07:01:52.962Z,49.33
2023-03-05T07:04:19.373Z,48.52
2023-03-05T07:06:45.769Z,47.87
2023-03-05T07:09:12.151Z,46.53
2023-03-05T07:11:38.535Z,46.35
2023-03-05T07:14:04.958Z,48.28
2023-03-05T07:16:31.325Z,46.60
2023-03-05T07:18:57.806Z,45.50
2023-03-05T07:21:24.189Z,47.05
2023-03-05T07:23:50.651Z,47.75
2023-03-05T07:26:17.039Z,46.47
2023-03-05T07:28:43.428Z,47.33
2023-03-05T07:31:09.903Z,48.06
2023-03-05T07:33:36.307Z,49.10
2023-03-05T07:36:02.702Z,48.18
2023-03-05T07:38:29.091Z,48.97
2023-03-05T07:40:55.487Z,49.72
2023-03-05T07:43:21.868Z,45.68
2023-03-05T07:45:48.289Z,39.95
2023-03-05T07:48:14.775Z,48.87
2023-03-05T07:50:41.201Z,46.64
2023-03-05T07:53:07.614Z,47.66
2023-03-05T07:55:34.067Z,47.36
2023-03-05T07:58:00.510Z,47.69
2023-03-05T08:00:27.041Z,46.81
2023-03-05T08:02:53.557Z,46.22
2023-03-05T08:05:19.965Z,46.18
2023-03-05T08:07:47.385Z,45.96
2023-03-05T08:10:13.759Z,45.90
2023-03-05T08:12:40.171Z,46.81
2023-03-05T08:15:06.551Z,46.79
2023-03-05T08:17:32.956Z,45.64
2023-03-05T08:19:59.330Z,44.35
2023-03-05T08:22:25.732Z,44.38
2023-03-05T08:24:52.108Z,45.29
2023-03-05T08:27:18.543Z,46.55
2023-03-05T08:29:45.013Z,47.48
2023-03-05T08:32:11.430Z,47.37
2023-03-05T08:34:37.862Z,48.49
2023-03-05T08:37:04.241Z,48.21
2023-03-05T08:39:30.669Z,46.73
2023-03-05T08:41:57.057Z,47.76
2023-03-05T08:44:23.423Z,47.31
2023-03-05T08:46:49.903Z,48.54
2023-03-05T08:49:16.432Z,48.33
2023-03-05T08:51:42.877Z,44.82
2023-03-05T08:54:09.264Z,47.11
2023-03-05T08:56:35.736Z,47.73
2023-03-05T08:59:02.150Z,47.36
2023-03-05T09:01:28.545Z,47.21
2023-03-05T09:03:54.961Z,46.53
2023-03-05T09:06:21.337Z,46.98
2023-03-05T09:08:47.730Z,47.06
2023-03-05T09:11:14.190Z,47.05
2023-03-05T09:13:40.638Z,46.89
2023-03-05T09:16:07.265Z,48.14
2023-03-05T09:18:33.682Z,45.61
2023-03-05T09:21:00.077Z,48.05
2023-03-05T09:23:26.504Z,47.45
2023-03-05T09:25:52.873Z,46.05
2023-03-05T09:28:19.373Z,46.60
2023-03-05T09:30:46.484Z,45.77
2023-03-05T09:33:12.867Z,45.96
2023-03-05T09:35:39.291Z,46.23
2023-03-05T09:38:05.710Z,46.09
2023-03-05T09:40:32.108Z,46.11
2023-03-05T09:42:58.511Z,45.20
2023-03-05T09:45:24.929Z,43.63
2023-03-05T09:47:51.291Z,45.67
2023-03-05T09:50:17.689Z,46.33
2023-03-05T09:52:45.821Z,47.33
2023-03-05T09:55:12.201Z,48.23
2023-03-05T09:57:38.585Z,47.62
2023-03-05T10:00:04.970Z,48.84
2023-03-05T10:02:31.342Z,50.01
2023-03-05T10:04:57.742Z,49.38
2023-03-05T10:07:24.100Z,49.59
2023-03-05T10:09:50.496Z,49.35
2023-03-05T10:12:16.929Z,49.36
2023-03-05T10:14:43.317Z,48.99
2023-03-05T10:17:09.750Z,48.11
2023-03-05T10:19:36.224Z,48.15
2023-03-05T10:22:02.611Z,48.73
2023-03-05T10:24:29.036Z,47.71
2023-03-05T10:26:55.417Z,48.39
2023-03-05T10:29:21.862Z,47.77
2023-03-05T10:31:48.269Z,47.48
2023-03-05T10:34:14.655Z,47.35
2023-03-05T10:36:41.136Z,48.10
2023-03-05T10:39:07.716Z,49.65
2023-03-05T10:41:34.079Z,49.10
2023-03-05T10:44:00.446Z,48.33
2023-03-05T10:46:27.023Z,48.50
2023-03-05T10:48:53.386Z,47.27
2023-03-05T10:51:19.799Z,46.50
2023-03-05T10:53:46.179Z,46.51
2023-03-05T10:56:12.609Z,47.46
2023-03-05T10:58:38.976Z,46.57
2023-03-05T11:01:05.462Z,47.98
2023-03-05T11:03:31.869Z,48.24
2023-03-05T11:05:58.225Z,48.22
2023-03-05T11:08:24.645Z,49.42
2023-03-05T11:10:51.042Z,48.64
2023-03-05T11:13:17.429Z,48.69
2023-03-05T11:15:43.874Z,46.72
2023-03-05T11:18:10.290Z,46.00
2023-03-05T11:20:36.698Z,46.33
2023-03-05T11:23:03.076Z,46.30
2023-03-05T11:25:29.541Z,47.85
2023-03-05T11:27:55.900Z,47.34
2023-03-05T11:30:22.296Z,47.82
2023-03-05T11:32:48.701Z,46.61
2023-03-05T11:35:15.118Z,46.94
2023-03-05T11:37:41.550Z,45.99
2023-03-05T11:40:07.961Z,47.31
2023-03-05T11:42:34.417Z,47.03
2023-03-05T11:45:00.816Z,46.72
2023-03-05T11:47:27.263Z,47.72
2023-03-05T11:49:53.637Z,47.16
2023-03-05T11:52:20.066Z,46.54
2023-03-05T11:54:46.432Z,46.97
2023-03-05T11:57:12.821Z,46.40
2023-03-05T11:59:39.237Z,47.35
2023-03-05T12:02:05.607Z,46.35
2023-03-05T12:04:33.035Z,46.35
2023-03-05T12:06:59.420Z,46.37
2023-03-05T12:09:25.802Z,46.76
2023-03-05T12:11:52.194Z,47.01
2023-03-05T12:14:18.582Z,48.65
2023-03-05T12:16:45.229Z,48.75
2023-03-05T12:19:11.632Z,47.26
2023-03-05T12:21:38.013Z,46.57
2023-03-05T12:24:04.396Z,47.09
2023-03-05T12:26:30.798Z,46.06
2023-03-05T12:28:57.181Z,46.99
2023-03-05T12:31:23.707Z,46.80
2023-03-05T12:33:50.110Z,46.11
2023-03-05T12:36:16.515Z,46.09
2023-03-05T12:38:42.911Z,46.03
2023-03-05T12:41:09.323Z,46.68
2023-03-05T12:43:35.714Z,48.13
2023-03-05T12:46:02.075Z,44.80
2023-03-05T12:48:28.526Z,46.35
2023-03-05T12:50:54.901Z,45.26
2023-03-05T12:53:21.304Z,44.27
2023-03-05T12:55:47.695Z,45.75
2023-03-05T12:58:14.059Z,46.10
2023-03-05T13:00:40.500Z,46.19
2023-03-05T13:03:06.959Z,45.95
2023-03-05T13:05:33.400Z,45.61
2023-03-05T13:07:59.756Z,46.67
2023-03-05T13:10:26.121Z,46.37
2023-03-05T13:12:52.557Z,46.13
2023-03-05T13:15:18.931Z,47.10
2023-03-05T13:17:45.469Z,47.06
2023-03-05T13:20:11.919Z,45.32
2023-03-05T13:22:38.350Z,46.44
2023-03-05T13:25:04.824Z,46.43
2023-03-05T13:27:31.204Z,46.87
2023-03-05T13:29:57.571Z,46.49
2023-03-05T13:32:23.985Z,47.00
2023-03-05T13:34:50.405Z,46.72
2023-03-05T13:37:16.861Z,46.57
2023-03-05T13:39:43.242Z,46.48
2023-03-05T13:42:09.603Z,45.67
2023-03-05T13:44:36.239Z,45.85
2023-03-05T13:47:02.742Z,47.71
2023-03-05T13:49:29.103Z,46.11
2023-03-05T13:51:55.490Z,47.09
2023-03-05T13:54:22.933Z,46.67
2023-03-05T13:56:49.303Z,46.88
2023-03-05T13:59:15.777Z,46.32
2023-03-05T14:01:42.173Z,47.59
2023-03-05T14:04:08.615Z,46.91
2023-03-05T14:06:35.028Z,47.91
2023-03-05T14:09:01.474Z,47.89
2023-03-05T14:11:27.868Z,47.07
2023-03-05T14:13:54.225Z,47.41
2023-03-05T14:16:20.593Z,45.73
2023-03-05T14:18:47.057Z,47.18
2023-03-05T14:21:13.472Z,46.51
2023-03-05T14:23:39.838Z,45.58
2023-03-05T14:26:07.357Z,46.60
2023-03-05T14:28:33.778Z,47.68
2023-03-05T14:31:00.201Z,46.61
2023-03-05T14:33:26.623Z,45.48
2023-03-05T14:35:53.076Z,44.87
2023-03-05T14:38:19.577Z,44.53
2023-03-05T14:40:45.976Z,45.14
2023-03-05T14:43:12.368Z,43.69
2023-03-05T14:45:38.787Z,44.47
2023-03-05T14:48:05.194Z,45.45
2023-03-05T14:50:31.579Z,45.62
2023-03-05T14:52:58.017Z,44.43
2023-03-05T14:55:24.385Z,44.53
2023-03-05T14:57:50.813Z,44.39
2023-03-05T15:00:17.192Z,44.33
2023-03-05T15:02:43.688Z,43.33
2023-03-05T15:05:10.147Z,43.41
2023-03-05T15:07:36.569Z,42.98
2023-03-05T15:10:03.013Z,43.12
2023-03-05T15:12:29.400Z,43.45
2023-03-05T15:14:55.766Z,43.46
2023-03-05T15:17:22.146Z,42.90
2023-03-05T15:19:48.569Z,42.98
2023-03-05T15:22:14.961Z,42.71
2023-03-05T15:24:41.333Z,44.11
2023-03-05T15:27:07.716Z,43.34
2023-03-05T15:29:34.061Z,43.46
2023-03-05T15:32:00.515Z,44.57
2023-03-05T15:34:26.904Z,44.16
2023-03-05T15:36:53.311Z,44.16
2023-03-05T15:39:19.715Z,43.86
2023-03-05T15:41:46.099Z,42.41
2023-03-05T15:44:12.472Z,43.73
2023-03-05T15:46:38.869Z,43.23
2023-03-05T15:49:05.276Z,42.73
2023-03-05T15:51:31.660Z,42.06
2023-03-05T15:53:58.088Z,42.34
2023-03-05T15:56:24.466Z,42.38
2023-03-05T15:58:50.882Z,41.41
2023-03-05T16:01:17.347Z,42.69
2023-03-05T16:03:43.749Z,42.49
2023-03-05T16:06:10.163Z,42.38
2023-03-05T16:08:36.523Z,42.36
2023-03-05T16:11:02.918Z,42.28
2023-03-05T16:13:29.320Z,42.81
2023-03-05T16:15:55.731Z,41.95
2023-03-05T16:18:22.114Z,43.15
2023-03-05T16:20:48.480Z,42.94
2023-03-05T16:23:14.901Z,40.88
2023-03-05T16:25:41.287Z,41.64
2023-03-05T16:28:07.661Z,41.35
2023-03-05T16:30:34.026Z,41.41
2023-03-05T16:33:00.418Z,40.56
2023-03-05T16:35:26.852Z,41.19
2023-03-05T16:37:53.232Z,40.89
2023-03-05T16:40:19.622Z,41.46
2023-03-05T16:42:46.009Z,42.07
2023-03-05T16:45:12.409Z,41.85
2023-03-05T16:47:38.887Z,41.03
2023-03-05T16:50:05.271Z,41.87
2023-03-05T16:52:31.651Z,42.10
2023-03-05T16:54:58.080Z,41.03
2023-03-05T16:57:24.486Z,41.41
2023-03-05T16:59:50.874Z,42.83
2023-03-05T17:02:17.315Z,43.41
2023-03-05T17:04:43.684Z,43.80
2023-03-05T17:07:10.042Z,43.43
2023-03-05T17:09:36.422Z,44.18
2023-03-05T17:12:02.858Z,43.60
2023-03-05T17:14:29.285Z,43.57
2023-03-05T17:16:55.677Z,46.44
2023-03-05T17:19:22.093Z,46.05
2023-03-05T17:21:48.478Z,45.46
2023-03-05T17:24:14.849Z,45.33
2023-03-05T17:26:41.250Z,44.75
2023-03-05T17:29:07.662Z,45.54
2023-03-05T17:31:34.132Z,45.65
2023-03-05T17:34:00.564Z,45.48
2023-03-05T17:36:26.966Z,45.77
2023-03-05T17:38:53.349Z,46.74
2023-03-05T17:41:19.734Z,46.71
2023-03-05T17:43:46.119Z,45.64
2023-03-05T17:46:12.508Z,45.62
2023-03-05T17:48:38.891Z,45.38
2023-03-05T17:51:05.289Z,44.37
2023-03-05T17:53:31.706Z,43.96
2023-03-05T17:55:58.090Z,46.21
2023-03-05T17:58:24.502Z,45.37
2023-03-05T18:00:50.961Z,44.22
2023-03-05T18:03:17.353Z,43.92
2023-03-05T18:05:43.757Z,44.31
2023-03-05T18:08:10.145Z,43.02
2023-03-05T18:10:36.587Z,43.55
2023-03-05T18:13:02.970Z,43.69
2023-03-05T18:15:29.412Z,44.88
2023-03-05T18:17:55.803Z,44.35
2023-03-05T18:20:22.204Z,44.74
2023-03-05T18:22:48.610Z,44.42
2023-03-05T18:25:14.993Z,46.92
2023-03-05T18:27:41.415Z,46.05
2023-03-05T18:30:07.840Z,45.92
2023-03-05T18:32:34.246Z,47.02
2023-03-05T18:35:00.712Z,47.09
2023-03-05T18:37:27.066Z,47.83
2023-03-05T18:39:53.465Z,47.19
2023-03-05T18:42:19.820Z,44.48
2023-03-05T18:44:46.204Z,44.17
2023-03-05T18:47:13.595Z,44.28
2023-03-05T18:49:39.978Z,43.06
2023-03-05T18:52:06.364Z,43.69
2023-03-05T18:54:32.724Z,41.79
2023-03-05T18:56:59.109Z,42.63
2023-03-05T18:59:25.545Z,42.06
2023-03-05T19:01:51.945Z,40.98
2023-03-05T19:04:18.354Z,41.83
2023-03-05T19:06:45.821Z,41.19
2023-03-05T19:09:12.203Z,42.08
2023-03-05T19:11:38.654Z,41.91
2023-03-05T19:14:05.067Z,42.12
2023-03-05T19:16:31.468Z,42.26
2023-03-05T19:18:57.894Z,45.84
2023-03-05T19:21:24.283Z,48.73
2023-03-05T19:23:50.694Z,48.23
2023-03-05T19:26:17.107Z,48.73
2023-03-05T19:28:43.541Z,47.57
2023-03-05T19:31:09.972Z,46.94
2023-03-05T19:33:36.408Z,47.67
2023-03-05T19:36:02.839Z,49.29
2023-03-05T19:38:29.231Z,48.46
2023-03-05T19:40:55.653Z,49.13
2023-03-05T19:43:22.037Z,49.57
2023-03-05T19:45:48.610Z,49.02
2023-03-05T19:48:15.005Z,50.18
2023-03-05T19:50:41.485Z,48.91
2023-03-05T19:53:07.914Z,47.17
2023-03-05T19:55:34.460Z,46.46
2023-03-05T19:58:00.898Z,47.41
2023-03-05T20:00:27.483Z,46.09
2023-03-05T20:02:53.918Z,45.77
2023-03-05T20:05:20.476Z,47.74
2023-03-05T20:07:46.882Z,47.07
2023-03-05T20:10:13.365Z,44.67
2023-03-05T20:12:39.856Z,45.44
2023-03-05T20:15:06.309Z,46.37
2023-03-05T20:17:32.953Z,45.35
2023-03-05T20:19:59.386Z,45.79
2023-03-05T20:22:25.905Z,45.08
2023-03-05T20:24:52.374Z,45.58
2023-03-05T20:27:18.790Z,47.48
2023-03-05T20:29:45.377Z,46.51
2023-03-05T20:32:11.862Z,48.28
2023-03-05T20:34:38.605Z,50.67
2023-03-05T20:37:05.067Z,48.00
2023-03-05T20:39:33.879Z,47.58
2023-03-05T20:42:00.319Z,49.00
2023-03-05T20:44:26.813Z,48.65
2023-03-05T20:46:53.953Z,48.51
2023-03-05T20:49:20.389Z,48.64
2023-03-05T20:51:46.863Z,50.94
2023-03-05T20:54:13.312Z,49.09
2023-03-05T20:56:39.718Z,49.73
2023-03-05T20:59:06.274Z,47.95
2023-03-05T21:01:32.710Z,47.92
2023-03-05T21:03:59.194Z,46.69
2023-03-05T21:06:25.600Z,47.41
2023-03-05T21:08:51.979Z,46.22
2023-03-05T21:11:18.479Z,45.79
2023-03-05T21:13:44.976Z,45.40
2023-03-05T21:16:11.404Z,45.25
2023-03-05T21:18:37.873Z,44.63
2023-03-05T21:21:04.257Z,44.54
2023-03-05T21:23:30.638Z,44.50
2023-03-05T21:25:57.037Z,43.21
2023-03-05T21:28:23.512Z,43.78
2023-03-05T21:30:49.918Z,44.67
2023-03-05T21:33:16.360Z,44.14
2023-03-05T21:35:42.783Z,44.75
2023-03-05T21:38:09.184Z,44.40
2023-03-05T21:40:35.589Z,44.02
2023-03-05T21:43:01.979Z,43.26
2023-03-05T21:45:28.451Z,42.74
2023-03-05T21:47:54.877Z,43.23
2023-03-05T21:50:21.318Z,43.59
2023-03-05T21:52:47.728Z,43.46
2023-03-05T21:55:14.220Z,42.40
2023-03-05T21:57:40.603Z,42.06
2023-03-05T22:00:07.007Z,43.20
2023-03-05T22:02:33.437Z,43.79
2023-03-05T22:05:00.843Z,42.19
2023-03-05T22:07:27.242Z,41.99
2023-03-05T22:09:53.624Z,42.56
2023-03-05T22:12:20.012Z,43.71
2023-03-05T22:14:46.408Z,42.42
2023-03-05T22:17:12.878Z,42.24
2023-03-05T22:19:39.280Z,41.43
2023-03-05T22:22:05.684Z,42.82
2023-03-05T22:24:32.131Z,42.72
2023-03-05T22:26:58.509Z,42.04
2023-03-05T22:29:25.687Z,42.92
2023-03-05T22:31:52.141Z,45.11
2023-03-05T22:34:18.548Z,45.81
2023-03-05T22:36:45.033Z,47.04
2023-03-05T22:39:11.459Z,46.01
2023-03-05T22:41:37.861Z,45.18
2023-03-05T22:44:05.325Z,45.87
2023-03-05T22:46:31.699Z,45.63
2023-03-05T22:48:58.116Z,45.11
2023-03-05T22:51:24.487Z,45.09
2023-03-05T22:53:51.006Z,46.17
2023-03-05T22:56:17.407Z,46.14
2023-03-05T22:58:43.887Z,46.55
2023-03-05T23:01:10.243Z,45.24
2023-03-05T23:03:36.692Z,45.34
2023-03-05T23:06:03.094Z,46.28
2023-03-05T23:08:29.498Z,45.53
2023-03-05T23:10:55.877Z,45.28
2023-03-05T23:13:22.287Z,46.33
2023-03-05T23:15:48.693Z,45.79
2023-03-05T23:18:15.104Z,45.11
2023-03-05T23:20:41.598Z,44.57
2023-03-05T23:23:07.966Z,43.76
2023-03-05T23:25:34.341Z,42.78
2023-03-05T23:28:00.782Z,43.42
2023-03-05T23:30:27.156Z,44.06
2023-03-05T23:32:53.531Z,44.28
2023-03-05T23:35:19.943Z,44.75
2023-03-05T23:37:46.336Z,44.14
2023-03-05T23:40:12.774Z,44.56
2023-03-05T23:42:39.163Z,44.28
2023-03-05T23:45:05.549Z,44.78
2023-03-05T23:47:31.933Z,43.42
2023-03-05T23:49:59.334Z,43.98
2023-03-05T23:52:25.702Z,43.12
2023-03-05T23:54:52.142Z,43.88
2023-03-05T23:57:18.521Z,44.50
2023-03-05T23:59:44.959Z,43.68
